Main page
METAR-TAF:

METAR-TAF

Airports :

Zahedan Airport

Zahedan, Iran

latitude: 29-28N, longitude: 060-53E, elevation: 1370 m

Current weather observation

The report was made 22 minutes ago, at 05:00 UTC
Wind 12 kt from the West/Southwest
Temperature 27°C
Humidity 21%
Pressure 1015 hPa
Visibility 10 km or more
no clouds below 1500 m and no cumulonimbus

METAR: OIZH 200500Z 25012KT CAVOK 27/03 Q1015 A2998 NOSIG

Time: 09:52 (05:22 UTC)

Forecast

The report was made 6 hours and 12 minutes ago, at 23:10 UTC
Forecast valid from 20 at 00 UTC to 21 at 06 UTC
Wind 14 kt from the West/Southwest
Visibility: 8000 m
Few clouds at a height of 4000 ft
Temporary
from 20 at 06 UTC to 20 at 14 UTC
Wind 20 kt from the West with gusts up to 30 kt
Scattered clouds at a height of 10000 ft
Temporary
from 20 at 17 UTC to 20 at 24 UTC
Wind 20 kt from the West with gusts up to 30 kt

TAF: OIZH 192310Z 2000/2106 25014KT 8000 FEW040 TEMPO 2006/2014 27020G30KT FEW0TCU SCT100 TEMPO 2017/2024 27020G30KT

Weather observations and forecasts of more than 4000 airports (METAR and TAF reports).

The available stations are represented by yellow and red dots on the map.

Hover mouse over dot to see the name of the station.

Then click to see weather observations and forecasts.

To change the map : click on the green buttons with a black cross to zoom in, on the green button with a dash to zoom out, or on the green arrows for adjacent maps.


METAR-TAF: